createdAt,value
2023-02-21T00:02:20.424Z,-10.72
2023-02-21T00:05:06.830Z,-10.65
2023-02-21T00:07:53.021Z,-10.57
2023-02-21T00:10:39.123Z,-11.27
2023-02-21T00:13:25.142Z,-10.66
2023-02-21T00:16:11.510Z,-10.75
2023-02-21T00:18:57.710Z,-10.69
2023-02-21T00:21:46.468Z,-10.71
2023-02-21T00:24:35.724Z,-10.64
2023-02-21T00:27:22.580Z,-11.22
2023-02-21T00:30:09.813Z,-11.08
2023-02-21T00:32:56.277Z,-10.61
2023-02-21T00:35:42.460Z,-10.63
2023-02-21T00:38:30.095Z,-11.05
2023-02-21T00:41:16.285Z,-10.69
2023-02-21T00:44:02.482Z,-10.56
2023-02-21T00:46:48.505Z,-10.53
2023-02-21T00:49:34.975Z,-10.47
2023-02-21T00:52:20.698Z,-10.48
2023-02-21T00:55:06.842Z,-10.51
2023-02-21T00:57:53.034Z,-10.55
2023-02-21T01:00:43.397Z,-10.81
2023-02-21T01:03:30.762Z,-10.52
2023-02-21T01:06:16.910Z,-10.48
2023-02-21T01:09:04.217Z,-10.61
2023-02-21T01:11:52.170Z,-10.48
2023-02-21T01:14:38.294Z,-10.52
2023-02-21T01:17:24.837Z,-11.02
2023-02-21T01:20:10.948Z,-10.54
2023-02-21T01:22:57.032Z,-10.54
2023-02-21T01:25:42.761Z,-10.52
2023-02-21T01:28:28.639Z,-10.64
2023-02-21T01:31:14.862Z,-10.66
2023-02-21T01:34:01.657Z,-10.67
2023-02-21T01:39:34.324Z,-10.79
2023-02-21T01:42:21.044Z,-10.88
2023-02-21T01:45:07.867Z,-10.97
2023-02-21T01:47:53.635Z,-10.97
2023-02-21T01:50:49.707Z,-11.08
2023-02-21T01:53:40.471Z,-11.18
2023-02-21T01:56:28.223Z,-11.38
2023-02-21T01:59:18.020Z,-11.40
2023-02-21T02:02:36.214Z,-11.60
2023-02-21T02:05:24.501Z,-12.33
2023-02-21T02:08:11.904Z,-11.74
2023-02-21T02:11:00.910Z,-11.75
2023-02-21T02:13:47.871Z,-11.74
2023-02-21T02:16:43.829Z,-11.86
2023-02-21T02:19:30.107Z,-12.00
2023-02-21T02:22:14.040Z,-11.90
2023-02-21T02:24:50.096Z,-11.95
2023-02-21T02:27:43.629Z,-12.07
2023-02-21T02:30:26.307Z,-12.10
2023-02-21T02:33:01.569Z,-12.15
2023-02-21T02:35:35.068Z,-12.28
2023-02-21T02:38:15.715Z,-12.38
2023-02-21T02:40:58.216Z,-12.45
2023-02-21T02:43:35.129Z,-12.47
2023-02-21T02:46:15.777Z,-12.62
2023-02-21T02:48:55.033Z,-12.74
2023-02-21T02:51:23.465Z,-12.80
2023-02-21T02:53:50.825Z,-12.86
2023-02-21T02:56:18.834Z,-13.06
2023-02-21T02:58:54.728Z,-12.90
2023-02-21T03:01:45.098Z,-12.95
2023-02-21T03:04:32.667Z,-13.05
2023-02-21T03:07:25.618Z,-13.06
2023-02-21T03:10:18.340Z,-13.12
2023-02-21T03:13:18.327Z,-13.14
2023-02-21T03:15:50.015Z,-13.07
2023-02-21T03:18:23.311Z,-13.00
2023-02-21T03:20:57.448Z,-13.09
2023-02-21T03:23:29.353Z,-13.13
2023-02-21T03:26:01.171Z,-13.14
2023-02-21T03:28:30.737Z,-13.88
2023-02-21T03:31:00.700Z,-13.29
2023-02-21T03:33:30.626Z,-13.17
2023-02-21T03:36:00.885Z,-13.18
2023-02-21T03:38:29.946Z,-13.21
2023-02-21T03:40:58.441Z,-13.02
2023-02-21T03:43:26.028Z,-13.04
2023-02-21T03:45:59.752Z,-12.93
2023-02-21T03:48:32.340Z,-12.92
2023-02-21T03:51:21.836Z,-12.77
2023-02-21T03:53:50.049Z,-12.93
2023-02-21T03:56:20.909Z,-12.75
2023-02-21T03:59:10.700Z,-12.79
2023-02-21T04:01:38.382Z,-12.72
2023-02-21T04:04:06.362Z,-13.48
2023-02-21T04:06:34.940Z,-12.82
2023-02-21T04:09:02.990Z,-12.94
2023-02-21T04:11:32.123Z,-12.93
2023-02-21T04:14:00.381Z,-12.89
2023-02-21T04:16:28.068Z,-12.92
2023-02-21T04:18:57.415Z,-12.95
2023-02-21T04:21:26.575Z,-13.28
2023-02-21T04:23:56.695Z,-12.88
2023-02-21T04:26:30.330Z,-13.80
2023-02-21T04:28:57.888Z,-13.10
2023-02-21T04:31:25.457Z,-13.13
2023-02-21T04:34:05.783Z,-13.22
2023-02-21T04:36:39.746Z,-13.28
2023-02-21T04:39:07.869Z,-13.27
2023-02-21T04:41:36.386Z,-13.46
2023-02-21T04:44:07.165Z,-13.51
2023-02-21T04:46:35.200Z,-14.31
2023-02-21T04:49:02.885Z,-13.58
2023-02-21T04:51:30.465Z,-14.42
2023-02-21T04:53:58.204Z,-13.63
2023-02-21T04:56:27.791Z,-13.66
2023-02-21T04:58:55.897Z,-13.76
2023-02-21T05:01:27.444Z,-13.83
2023-02-21T05:03:54.912Z,-13.88
2023-02-21T05:06:24.530Z,-13.88
2023-02-21T05:08:52.520Z,-13.81
2023-02-21T05:11:21.446Z,-13.79
2023-02-21T05:13:49.193Z,-13.93
2023-02-21T05:16:17.255Z,-13.68
2023-02-21T05:18:46.602Z,-13.65
2023-02-21T05:21:16.401Z,-13.54
2023-02-21T05:23:56.281Z,-13.57
2023-02-21T05:26:31.533Z,-13.54
2023-02-21T05:28:59.075Z,-13.51
2023-02-21T05:34:44.925Z,-14.33
2023-02-21T05:37:12.828Z,-13.36
2023-02-21T05:39:40.417Z,-13.50
2023-02-21T05:42:08.296Z,-13.10
2023-02-21T05:44:36.172Z,-12.95
2023-02-21T05:47:04.471Z,-13.54
2023-02-21T05:49:31.968Z,-13.31
2023-02-21T05:51:59.744Z,-13.12
2023-02-21T05:54:27.202Z,-12.33
2023-02-21T05:56:54.795Z,-12.06
2023-02-21T05:59:22.666Z,-11.95
2023-02-21T06:01:50.901Z,-11.90
2023-02-21T06:04:19.057Z,-11.84
2023-02-21T06:06:46.560Z,-11.72
2023-02-21T06:09:14.265Z,-11.74
2023-02-21T06:11:42.256Z,-11.27
2023-02-21T06:14:16.353Z,-10.98
2023-02-21T06:16:44.674Z,-10.52
2023-02-21T06:19:14.290Z,-10.01
2023-02-21T06:21:42.309Z,-9.53
2023-02-21T06:24:11.181Z,-9.18
2023-02-21T06:26:43.840Z,-9.21
2023-02-21T06:29:12.861Z,-9.05
2023-02-21T06:31:40.295Z,-9.02
2023-02-21T06:34:08.091Z,-9.12
2023-02-21T06:36:40.137Z,-8.91
2023-02-21T06:39:08.389Z,-8.52
2023-02-21T06:41:36.289Z,-8.61
2023-02-21T06:44:03.993Z,-7.57
2023-02-21T06:46:37.143Z,-7.04
2023-02-21T06:49:05.747Z,-6.55
2023-02-21T06:51:40.164Z,-6.92
2023-02-21T06:54:08.357Z,-6.30
2023-02-21T06:56:37.250Z,-6.14
2023-02-21T06:59:05.534Z,-6.12
2023-02-21T07:01:33.865Z,-6.53
2023-02-21T07:04:02.003Z,-6.56
2023-02-21T07:06:30.076Z,-6.30
2023-02-21T07:08:57.992Z,-5.74
2023-02-21T07:11:25.505Z,-4.67
2023-02-21T07:13:54.348Z,-3.97
2023-02-21T07:16:22.178Z,-3.68
2023-02-21T07:18:49.672Z,-3.78
2023-02-21T07:21:18.576Z,-3.79
2023-02-21T07:23:47.102Z,-4.66
2023-02-21T07:26:15.787Z,-4.44
2023-02-21T07:28:43.391Z,-4.03
2023-02-21T07:31:11.405Z,-3.61
2023-02-21T07:33:38.988Z,-3.37
2023-02-21T07:36:06.836Z,-3.26
2023-02-21T07:38:34.769Z,-3.39
2023-02-21T07:41:03.715Z,-2.99
2023-02-21T07:43:31.876Z,-2.91
2023-02-21T07:45:59.595Z,-3.02
2023-02-21T07:48:27.003Z,-2.97
2023-02-21T07:50:54.463Z,-2.94
2023-02-21T07:53:22.199Z,-3.55
2023-02-21T07:55:49.612Z,-3.19
2023-02-21T07:58:17.024Z,-3.45
2023-02-21T08:00:45.446Z,-3.89
2023-02-21T08:03:14.212Z,-3.93
2023-02-21T08:05:42.039Z,-4.14
2023-02-21T08:08:10.279Z,-4.60
2023-02-21T08:10:41.757Z,-4.07
2023-02-21T08:13:09.046Z,-3.61
2023-02-21T08:15:36.892Z,-4.35
2023-02-21T08:18:04.308Z,-3.82
2023-02-21T08:20:32.017Z,-4.60
2023-02-21T08:22:59.798Z,-3.88
2023-02-21T08:25:27.206Z,-3.99
2023-02-21T08:27:55.485Z,-4.49
2023-02-21T08:30:23.144Z,-4.26
2023-02-21T08:32:51.501Z,-4.38
2023-02-21T08:35:20.280Z,-5.63
2023-02-21T08:37:49.327Z,-5.54
2023-02-21T08:40:20.161Z,-5.36
2023-02-21T08:42:52.521Z,-6.52
2023-02-21T08:45:21.970Z,-6.93
2023-02-21T08:47:50.228Z,-7.37
2023-02-21T08:50:19.074Z,-8.83
2023-02-21T08:52:47.456Z,-8.42
2023-02-21T08:55:15.249Z,-7.99
2023-02-21T08:57:42.966Z,-8.43
2023-02-21T09:00:13.734Z,-8.53
2023-02-21T09:02:42.618Z,-8.54
2023-02-21T09:05:19.740Z,-8.72
2023-02-21T09:07:52.005Z,-8.67
2023-02-21T09:10:19.528Z,-8.64
2023-02-21T09:12:48.234Z,-8.38
2023-02-21T09:15:16.440Z,-8.34
2023-02-21T09:17:44.464Z,-8.57
2023-02-21T09:20:16.370Z,-8.57
2023-02-21T09:22:47.823Z,-8.51
2023-02-21T09:25:18.718Z,-7.65
2023-02-21T09:27:46.303Z,-7.81
2023-02-21T09:30:17.290Z,-7.25
2023-02-21T09:32:45.175Z,-7.24
2023-02-21T09:35:14.140Z,-7.95
2023-02-21T09:37:43.142Z,-7.21
2023-02-21T09:40:27.937Z,-7.78
2023-02-21T09:42:58.827Z,-8.53
2023-02-21T09:45:31.176Z,-8.28
2023-02-21T09:48:04.682Z,-8.36
2023-02-21T09:50:40.249Z,-8.15
2023-02-21T09:53:08.521Z,-8.67
2023-02-21T09:55:39.346Z,-8.21
2023-02-21T09:58:14.245Z,-8.19
2023-02-21T10:00:45.399Z,-8.58
2023-02-21T10:03:27.442Z,-9.48
2023-02-21T10:06:05.376Z,-8.79
2023-02-21T10:09:00.212Z,-8.68
2023-02-21T10:11:45.608Z,-8.66
2023-02-21T10:14:17.923Z,-8.46
2023-02-21T10:17:12.403Z,-8.11
2023-02-21T10:19:44.228Z,-8.20
2023-02-21T10:22:20.789Z,-8.06
2023-02-21T10:24:50.146Z,-8.07
2023-02-21T10:27:25.147Z,-8.21
2023-02-21T10:30:01.802Z,-8.09
2023-02-21T10:32:32.510Z,-8.19
2023-02-21T10:35:00.398Z,-8.80
2023-02-21T10:37:41.959Z,-8.37
2023-02-21T10:40:37.152Z,-8.32
2023-02-21T10:43:18.312Z,-8.30
2023-02-21T10:46:18.228Z,-8.34
2023-02-21T10:48:48.611Z,-8.13
2023-02-21T10:51:28.402Z,-8.17
2023-02-21T10:54:21.047Z,-8.13
2023-02-21T10:56:54.121Z,-9.45
2023-02-21T10:59:23.528Z,-8.03
2023-02-21T11:01:52.478Z,-8.14
2023-02-21T11:04:20.161Z,-8.19
2023-02-21T11:06:55.025Z,-9.17
2023-02-21T11:09:31.513Z,-9.09
2023-02-21T11:12:03.359Z,-8.61
2023-02-21T11:14:32.569Z,-8.90
2023-02-21T11:17:14.740Z,-8.80
2023-02-21T11:19:52.777Z,-8.94
2023-02-21T11:22:43.149Z,-9.82
2023-02-21T11:25:26.277Z,-8.88
2023-02-21T11:28:15.310Z,-8.63
2023-02-21T11:31:29.090Z,-8.77
2023-02-21T11:34:02.405Z,-8.93
2023-02-21T11:36:33.383Z,-8.92
2023-02-21T11:39:29.866Z,-8.89
2023-02-21T11:42:05.127Z,-8.99
2023-02-21T11:44:41.055Z,-9.11
2023-02-21T11:47:34.808Z,-9.07
2023-02-21T11:50:08.860Z,-9.09
2023-02-21T11:53:06.435Z,-9.29
2023-02-21T11:55:35.882Z,-9.18
2023-02-21T11:58:12.332Z,-8.95
2023-02-21T12:01:02.129Z,-8.93
2023-02-21T12:04:03.221Z,-9.00
2023-02-21T12:07:03.604Z,-9.10
2023-02-21T12:09:44.477Z,-9.10
2023-02-21T12:12:18.026Z,-9.10
2023-02-21T12:15:13.872Z,-9.39
2023-02-21T12:18:05.314Z,-10.02
2023-02-21T12:20:43.408Z,-9.35
2023-02-21T12:23:41.370Z,-9.27
2023-02-21T12:26:15.737Z,-9.86
2023-02-21T12:29:17.272Z,-9.33
2023-02-21T12:32:03.776Z,-9.48
2023-02-21T12:34:43.043Z,-9.56
2023-02-21T12:37:22.601Z,-10.27
2023-02-21T12:40:05.437Z,-9.57
2023-02-21T12:42:43.929Z,-10.54
2023-02-21T12:45:25.170Z,-9.73
2023-02-21T12:48:33.787Z,-9.73
2023-02-21T12:51:07.419Z,-9.62
2023-02-21T12:53:41.736Z,-9.59
2023-02-21T12:56:21.561Z,-9.49
2023-02-21T12:59:17.505Z,-9.49
2023-02-21T13:01:55.182Z,-9.39
2023-02-21T13:04:48.325Z,-9.31
2023-02-21T13:07:25.902Z,-9.25
2023-02-21T13:10:28.168Z,-9.35
2023-02-21T13:13:12.289Z,-10.26
2023-02-21T13:15:42.914Z,-9.67
2023-02-21T13:18:18.767Z,-9.73
2023-02-21T13:20:56.809Z,-9.79
2023-02-21T13:23:25.512Z,-9.65
2023-02-21T13:26:33.003Z,-9.67
2023-02-21T13:29:00.730Z,-9.81
2023-02-21T13:31:42.852Z,-10.01
2023-02-21T13:34:12.850Z,-9.91
2023-02-21T13:36:41.853Z,-9.93
2023-02-21T13:39:09.113Z,-9.88
2023-02-21T13:41:49.798Z,-10.62
2023-02-21T13:44:33.857Z,-10.70
2023-02-21T13:47:08.271Z,-10.20
2023-02-21T13:49:38.570Z,-10.21
2023-02-21T13:52:23.833Z,-10.25
2023-02-21T13:55:20.616Z,-11.54
2023-02-21T13:57:57.933Z,-10.43
2023-02-21T14:00:32.348Z,-10.41
2023-02-21T14:03:18.386Z,-10.46
2023-02-21T14:05:51.574Z,-10.49
2023-02-21T14:08:32.285Z,-10.60
2023-02-21T14:11:15.675Z,-10.70
2023-02-21T14:13:53.944Z,-10.77
2023-02-21T14:16:23.364Z,-10.78
2023-02-21T14:21:51.205Z,-11.62
2023-02-21T14:24:28.351Z,-11.06
2023-02-21T14:27:01.828Z,-11.22
2023-02-21T14:29:40.899Z,-11.51
2023-02-21T14:32:08.661Z,-11.33
2023-02-21T14:34:50.533Z,-11.45
2023-02-21T14:37:45.511Z,-11.44
2023-02-21T14:40:40.823Z,-11.43
2023-02-21T14:43:31.471Z,-11.49
2023-02-21T14:46:14.784Z,-11.48
2023-02-21T14:48:48.014Z,-11.56
2023-02-21T14:51:55.813Z,-12.48
2023-02-21T14:54:52.019Z,-11.60
2023-02-21T14:57:49.704Z,-11.73
2023-02-21T15:00:28.793Z,-11.59
2023-02-21T15:03:06.124Z,-11.59
2023-02-21T15:06:03.208Z,-11.88
2023-02-21T15:08:47.068Z,-11.68
2023-02-21T15:11:30.066Z,-11.61
2023-02-21T15:14:24.010Z,-11.67
2023-02-21T15:16:57.999Z,-12.44
2023-02-21T15:19:33.180Z,-12.41
2023-02-21T15:22:36.160Z,-11.81
2023-02-21T15:25:09.946Z,-11.80
2023-02-21T15:27:52.308Z,-11.79
2023-02-21T15:30:28.899Z,-11.80
2023-02-21T15:33:07.720Z,-11.80
2023-02-21T15:35:43.548Z,-12.65
2023-02-21T15:38:26.209Z,-12.11
2023-02-21T15:40:59.807Z,-13.06
2023-02-21T15:43:43.030Z,-12.39
2023-02-21T15:46:24.978Z,-11.65
2023-02-21T15:48:55.931Z,-11.63
2023-02-21T15:51:23.609Z,-11.65
2023-02-21T15:54:21.420Z,-11.69
2023-02-21T15:56:48.907Z,-11.70
2023-02-21T15:59:20.964Z,-11.69
2023-02-21T16:02:17.878Z,-11.81
2023-02-21T16:04:48.095Z,-12.01
2023-02-21T16:07:57.519Z,-11.71
2023-02-21T16:10:34.465Z,-11.76
2023-02-21T16:13:02.559Z,-12.19
2023-02-21T16:15:33.660Z,-11.70
2023-02-21T16:18:13.380Z,-11.94
2023-02-21T16:20:42.694Z,-11.59
2023-02-21T16:23:27.975Z,-11.64
2023-02-21T16:26:04.441Z,-11.70
2023-02-21T16:28:34.729Z,-11.71
2023-02-21T16:31:04.597Z,-11.72
2023-02-21T16:33:32.724Z,-12.03
2023-02-21T16:36:04.898Z,-11.61
2023-02-21T16:38:32.331Z,-11.64
2023-02-21T16:40:59.598Z,-11.64
2023-02-21T16:43:29.474Z,-11.68
2023-02-21T16:45:58.612Z,-11.86
2023-02-21T16:48:33.477Z,-11.89
2023-02-21T16:51:04.989Z,-12.01
2023-02-21T16:53:32.607Z,-12.04
2023-02-21T16:56:02.383Z,-12.84
2023-02-21T16:58:38.740Z,-12.10
2023-02-21T17:01:22.394Z,-12.11
2023-02-21T17:03:51.919Z,-13.51
2023-02-21T17:06:25.483Z,-13.26
2023-02-21T17:08:53.189Z,-13.56
2023-02-21T17:11:21.136Z,-12.28
2023-02-21T17:13:48.666Z,-12.32
2023-02-21T17:16:16.284Z,-13.17
2023-02-21T17:18:47.225Z,-12.57
2023-02-21T17:21:15.326Z,-12.46
2023-02-21T17:23:46.252Z,-13.75
2023-02-21T17:26:17.965Z,-12.68
2023-02-21T17:28:46.465Z,-12.62
2023-02-21T17:31:19.371Z,-13.36
2023-02-21T17:33:47.297Z,-12.47
2023-02-21T17:36:19.233Z,-12.60
2023-02-21T17:38:50.316Z,-13.25
2023-02-21T17:41:21.886Z,-12.57
2023-02-21T17:43:50.412Z,-13.42
2023-02-21T17:46:29.655Z,-12.64
2023-02-21T17:48:57.371Z,-13.75
2023-02-21T17:51:27.784Z,-13.37
2023-02-21T17:53:56.983Z,-13.34
2023-02-21T17:56:25.413Z,-13.13
2023-02-21T17:58:55.554Z,-12.65
2023-02-21T18:01:26.067Z,-12.94
2023-02-21T18:04:01.094Z,-12.69
2023-02-21T18:06:32.916Z,-13.01
2023-02-21T18:09:02.701Z,-13.55
2023-02-21T18:11:43.846Z,-13.39
2023-02-21T18:14:22.543Z,-12.85
2023-02-21T18:17:30.624Z,-12.91
2023-02-21T18:20:55.525Z,-13.93
2023-02-21T18:23:29.985Z,-13.61
2023-02-21T18:26:54.966Z,-14.09
2023-02-21T18:30:42.897Z,-12.98
2023-02-21T18:33:19.447Z,-14.00
2023-02-21T18:36:17.437Z,-13.49
2023-02-21T18:39:31.318Z,-15.19
2023-02-21T18:43:14.077Z,-14.26
2023-02-21T18:45:35.845Z,-13.54
2023-02-21T18:48:04.432Z,-13.07
2023-02-21T18:50:31.843Z,-13.12
2023-02-21T18:53:02.585Z,-12.93
2023-02-21T18:55:31.470Z,-13.52
2023-02-21T18:58:00.136Z,-12.94
2023-02-21T19:00:29.015Z,-13.81
2023-02-21T19:02:57.210Z,-12.95
2023-02-21T19:05:25.812Z,-13.17
2023-02-21T19:07:54.268Z,-13.02
2023-02-21T19:10:25.062Z,-13.81
2023-02-21T19:12:59.703Z,-13.08
2023-02-21T19:15:27.457Z,-13.78
2023-02-21T19:17:54.874Z,-13.27
2023-02-21T19:20:28.413Z,-13.14
2023-02-21T19:22:56.488Z,-13.13
2023-02-21T19:25:28.657Z,-13.28
2023-02-21T19:28:00.774Z,-13.16
2023-02-21T19:30:33.937Z,-13.17
2023-02-21T19:33:03.038Z,-13.21
2023-02-21T19:35:32.523Z,-13.56
2023-02-21T19:38:04.770Z,-13.26
2023-02-21T19:40:33.122Z,-13.27
2023-02-21T19:43:00.807Z,-13.29
2023-02-21T19:45:29.642Z,-13.43
2023-02-21T19:47:57.091Z,-14.32
2023-02-21T19:50:35.595Z,-14.62
2023-02-21T19:53:03.677Z,-13.46
2023-02-21T19:55:31.592Z,-13.96
2023-02-21T19:57:59.513Z,-13.60
2023-02-21T20:00:28.058Z,-14.27
2023-02-21T20:02:55.622Z,-15.11
2023-02-21T20:05:27.672Z,-13.89
2023-02-21T20:07:55.243Z,-13.70
2023-02-21T20:10:25.701Z,-14.26
2023-02-21T20:12:57.724Z,-13.86
2023-02-21T20:15:25.553Z,-13.74
2023-02-21T20:17:54.357Z,-13.73
2023-02-21T20:20:22.208Z,-13.77
2023-02-21T20:22:49.706Z,-13.75
2023-02-21T20:25:17.242Z,-14.69
2023-02-21T20:27:44.685Z,-15.13
2023-02-21T20:30:12.582Z,-13.96
2023-02-21T20:32:40.221Z,-13.78
2023-02-21T20:35:08.085Z,-13.80
2023-02-21T20:37:35.882Z,-13.89
2023-02-21T20:40:05.889Z,-13.80
2023-02-21T20:42:33.959Z,-13.85
2023-02-21T20:45:02.171Z,-13.97
2023-02-21T20:47:31.156Z,-14.68
2023-02-21T20:49:58.632Z,-14.04
2023-02-21T20:52:26.114Z,-14.27
2023-02-21T20:54:55.702Z,-14.11
2023-02-21T20:57:23.438Z,-14.02
2023-02-21T20:59:54.566Z,-14.85
2023-02-21T21:02:24.900Z,-14.92
2023-02-21T21:04:56.055Z,-14.07
2023-02-21T21:07:25.328Z,-14.27
2023-02-21T21:09:53.604Z,-14.25
2023-02-21T21:12:23.786Z,-14.86
2023-02-21T21:14:53.555Z,-14.12
2023-02-21T21:17:21.685Z,-14.11
2023-02-21T21:19:50.000Z,-14.13
2023-02-21T21:22:22.894Z,-14.18
2023-02-21T21:24:52.040Z,-14.18
2023-02-21T21:27:21.768Z,-14.84
2023-02-21T21:29:49.684Z,-14.24
2023-02-21T21:32:21.403Z,-14.27
2023-02-21T21:34:57.988Z,-14.28
2023-02-21T21:37:28.741Z,-14.33
2023-02-21T21:39:57.100Z,-14.33
2023-02-21T21:42:28.073Z,-14.30
2023-02-21T21:44:57.297Z,-14.29
2023-02-21T21:47:37.716Z,-14.93
2023-02-21T21:50:05.482Z,-14.31
2023-02-21T21:52:33.106Z,-14.32
2023-02-21T21:55:00.805Z,-14.29
2023-02-21T21:57:28.582Z,-14.24
2023-02-21T21:59:57.333Z,-14.25
2023-02-21T22:02:24.956Z,-14.24
2023-02-21T22:04:53.610Z,-14.29
2023-02-21T22:07:21.083Z,-15.09
2023-02-21T22:09:48.611Z,-15.15
2023-02-21T22:12:18.236Z,-14.50
2023-02-21T22:14:45.520Z,-14.51
2023-02-21T22:17:13.276Z,-14.44
2023-02-21T22:19:40.820Z,-15.23
2023-02-21T22:22:08.472Z,-15.15
2023-02-21T22:24:40.793Z,-14.40
2023-02-21T22:27:08.453Z,-14.40
2023-02-21T22:29:36.260Z,-15.04
2023-02-21T22:32:04.059Z,-14.34
2023-02-21T22:34:31.607Z,-14.34
2023-02-21T22:36:59.045Z,-14.35
2023-02-21T22:39:27.573Z,-14.59
2023-02-21T22:41:55.528Z,-14.49
2023-02-21T22:44:25.482Z,-14.44
2023-02-21T22:47:00.116Z,-14.40
2023-02-21T22:49:28.380Z,-14.45
2023-02-21T22:51:57.903Z,-14.36
2023-02-21T22:54:26.818Z,-14.38
2023-02-21T22:57:01.168Z,-14.33
2023-02-21T22:59:28.676Z,-14.37
2023-02-21T23:01:59.034Z,-15.72
2023-02-21T23:04:26.841Z,-14.85
2023-02-21T23:06:56.812Z,-14.35
2023-02-21T23:09:24.905Z,-14.30
2023-02-21T23:11:55.299Z,-14.22
2023-02-21T23:14:23.446Z,-14.95
2023-02-21T23:16:55.411Z,-14.17
2023-02-21T23:19:23.571Z,-14.30
2023-02-21T23:21:52.563Z,-14.20
2023-02-21T23:24:22.636Z,-14.35
2023-02-21T23:26:51.711Z,-14.27
2023-02-21T23:29:24.326Z,-14.26
2023-02-21T23:31:54.534Z,-14.27
2023-02-21T23:34:22.092Z,-14.39
2023-02-21T23:36:49.960Z,-14.31
2023-02-21T23:39:17.350Z,-14.36
2023-02-21T23:41:49.218Z,-14.44
2023-02-21T23:44:17.115Z,-14.50
2023-02-21T23:46:45.518Z,-14.72
2023-02-21T23:49:15.957Z,-14.59
2023-02-21T23:51:45.262Z,-14.59
2023-02-21T23:54:13.784Z,-14.63
2023-02-21T23:56:41.373Z,-14.65
2023-02-21T23:59:09.247Z,-14.59
